createdAt,value
2023-04-30T00:01:20.622Z,10.70
2023-04-30T00:03:46.819Z,10.50
2023-04-30T00:06:12.977Z,10.40
2023-04-30T00:08:39.601Z,10.77
2023-04-30T00:11:05.720Z,10.20
2023-04-30T00:13:31.804Z,10.37
2023-04-30T00:15:58.033Z,9.10
2023-04-30T00:18:24.118Z,9.83
2023-04-30T00:20:51.730Z,10.27
2023-04-30T00:23:17.773Z,9.73
2023-04-30T00:25:44.010Z,10.60
2023-04-30T00:28:10.070Z,10.23
2023-04-30T00:30:36.111Z,10.30
2023-04-30T00:33:02.294Z,9.40
2023-04-30T00:35:28.466Z,9.20
2023-04-30T00:37:54.572Z,8.70
2023-04-30T00:40:20.626Z,9.10
2023-04-30T00:42:47.975Z,8.27
2023-04-30T00:45:14.172Z,8.50
2023-04-30T00:47:40.458Z,9.30
2023-04-30T00:50:07.070Z,7.80
2023-04-30T00:52:33.221Z,8.40
2023-04-30T00:54:59.317Z,8.10
2023-04-30T00:57:26.122Z,8.10
2023-04-30T00:59:53.014Z,8.30
2023-04-30T01:02:19.425Z,7.90
2023-04-30T01:04:45.898Z,7.70
2023-04-30T01:07:12.016Z,7.83
2023-04-30T01:09:38.145Z,7.67
2023-04-30T01:12:22.680Z,7.23
2023-04-30T01:15:14.518Z,7.03
2023-04-30T01:17:48.380Z,8.23
2023-04-30T01:20:14.606Z,7.60
2023-04-30T01:23:11.801Z,7.77
2023-04-30T01:25:59.828Z,7.10
2023-04-30T01:28:27.360Z,7.63
2023-04-30T01:30:53.720Z,7.50
2023-04-30T01:33:19.856Z,7.90
2023-04-30T01:36:10.162Z,7.90
2023-04-30T01:38:56.311Z,7.13
2023-04-30T01:42:09.212Z,8.93
2023-04-30T01:44:44.272Z,7.77
2023-04-30T01:47:31.947Z,8.33
2023-04-30T01:50:19.499Z,8.50
2023-04-30T01:52:53.342Z,8.83
2023-04-30T01:55:41.028Z,7.77
2023-04-30T01:58:09.976Z,8.13
2023-04-30T02:00:36.090Z,7.20
2023-04-30T02:03:02.411Z,7.90
2023-04-30T02:05:28.663Z,7.47
2023-04-30T02:07:54.742Z,8.93
2023-04-30T02:10:22.315Z,9.17
2023-04-30T02:12:48.458Z,10.73
2023-04-30T02:15:14.699Z,10.47
2023-04-30T02:17:40.954Z,11.13
2023-04-30T02:20:07.916Z,12.13
2023-04-30T02:22:34.671Z,12.70
2023-04-30T02:25:00.793Z,14.13
2023-04-30T02:27:30.094Z,13.57
2023-04-30T02:29:56.430Z,13.37
2023-04-30T02:32:22.985Z,13.37
2023-04-30T02:34:49.232Z,14.70
2023-04-30T02:37:15.513Z,14.00
2023-04-30T02:39:42.061Z,13.27
2023-04-30T02:42:08.188Z,14.60
2023-04-30T02:44:34.602Z,12.70
2023-04-30T02:47:01.071Z,13.60
2023-04-30T02:49:27.613Z,15.00
2023-04-30T02:51:53.948Z,13.90
2023-04-30T02:54:20.281Z,13.33
2023-04-30T02:56:46.583Z,13.70
2023-04-30T02:59:12.820Z,14.43
2023-04-30T03:01:39.130Z,13.10
2023-04-30T03:04:05.240Z,13.77
2023-04-30T03:06:32.081Z,13.77
2023-04-30T03:08:58.602Z,13.47
2023-04-30T03:11:24.930Z,12.33
2023-04-30T03:13:51.300Z,13.60
2023-04-30T03:16:19.093Z,13.30
2023-04-30T03:18:46.188Z,13.07
2023-04-30T03:21:12.610Z,11.50
2023-04-30T03:23:38.728Z,13.23
2023-04-30T03:26:05.088Z,12.50
2023-04-30T03:28:31.127Z,11.70
2023-04-30T03:30:58.469Z,11.93
2023-04-30T03:33:24.575Z,11.23
2023-04-30T03:35:51.214Z,11.40
2023-04-30T03:38:17.444Z,10.30
2023-04-30T03:40:43.496Z,11.30
2023-04-30T03:43:09.709Z,12.30
2023-04-30T03:45:35.784Z,11.33
2023-04-30T03:48:01.906Z,12.50
2023-04-30T03:50:28.039Z,12.63
2023-04-30T03:52:54.139Z,12.13
2023-04-30T03:55:20.196Z,12.10
2023-04-30T03:57:46.295Z,11.70
2023-04-30T04:00:15.642Z,11.13
2023-04-30T04:02:41.778Z,10.97
2023-04-30T04:05:07.943Z,10.53
2023-04-30T04:07:33.978Z,11.03
2023-04-30T04:10:00.194Z,11.60
2023-04-30T04:12:26.262Z,11.43
2023-04-30T04:14:52.305Z,10.83
2023-04-30T04:17:18.354Z,11.20
2023-04-30T04:19:44.459Z,10.63
2023-04-30T04:22:10.649Z,10.93
2023-04-30T04:24:37.656Z,11.63
2023-04-30T04:27:03.752Z,10.40
2023-04-30T04:29:29.806Z,10.80
2023-04-30T04:31:55.894Z,11.70
2023-04-30T04:34:22.041Z,10.67
2023-04-30T04:36:48.123Z,10.57
2023-04-30T04:39:14.208Z,10.47
2023-04-30T04:41:40.800Z,10.80
2023-04-30T04:44:07.271Z,11.70
2023-04-30T04:46:34.608Z,12.00
2023-04-30T04:49:00.735Z,12.00
2023-04-30T04:51:26.780Z,11.37
2023-04-30T04:53:52.840Z,9.83
2023-04-30T04:56:18.894Z,10.87
2023-04-30T04:58:45.100Z,11.10
2023-04-30T05:01:11.292Z,10.57
2023-04-30T05:03:37.609Z,11.33
2023-04-30T05:06:04.603Z,10.33
2023-04-30T05:08:30.930Z,10.87
2023-04-30T05:10:57.135Z,10.67
2023-04-30T05:13:23.200Z,10.03
2023-04-30T05:15:51.060Z,10.33
2023-04-30T05:18:17.181Z,9.87
2023-04-30T05:20:43.279Z,10.57
2023-04-30T05:23:09.436Z,10.07
2023-04-30T05:25:35.983Z,10.10
2023-04-30T05:28:02.803Z,9.60
2023-04-30T05:30:29.180Z,10.20
2023-04-30T05:32:56.188Z,9.30
2023-04-30T05:35:22.284Z,8.57
2023-04-30T05:37:48.396Z,9.10
2023-04-30T05:40:14.803Z,8.20
2023-04-30T05:42:42.975Z,8.63
2023-04-30T05:45:13.955Z,7.33
2023-04-30T05:47:40.424Z,6.67
2023-04-30T05:50:07.453Z,5.93
2023-04-30T05:52:33.508Z,4.80
2023-04-30T05:54:59.733Z,4.73
2023-04-30T05:57:25.834Z,3.27
2023-04-30T05:59:53.132Z,3.70
2023-04-30T06:02:19.452Z,3.67
2023-04-30T06:04:45.640Z,4.60
2023-04-30T06:07:12.498Z,3.87
2023-04-30T06:09:38.646Z,3.30
2023-04-30T06:12:05.060Z,3.30
2023-04-30T06:14:31.406Z,3.20
2023-04-30T06:16:57.584Z,2.37
2023-04-30T06:19:23.840Z,2.53
2023-04-30T06:21:49.897Z,2.83
2023-04-30T06:24:15.969Z,2.60
2023-04-30T06:26:42.001Z,3.20
2023-04-30T06:29:08.045Z,2.20
2023-04-30T06:31:34.203Z,2.40
2023-04-30T06:34:00.291Z,1.97
2023-04-30T06:36:26.371Z,2.23
2023-04-30T06:38:52.434Z,2.30
2023-04-30T06:41:18.700Z,1.90
2023-04-30T06:43:44.820Z,1.90
2023-04-30T06:46:10.939Z,2.03
2023-04-30T06:48:37.040Z,2.07
2023-04-30T06:51:03.300Z,2.47
2023-04-30T06:53:29.448Z,2.37
2023-04-30T06:55:55.852Z,2.30
2023-04-30T06:58:22.256Z,1.80
2023-04-30T07:00:48.305Z,2.00
2023-04-30T07:03:14.480Z,1.73
2023-04-30T07:05:40.958Z,1.87
2023-04-30T07:08:07.079Z,2.20
2023-04-30T07:10:33.313Z,1.40
2023-04-30T07:12:59.417Z,2.20
2023-04-30T07:15:25.533Z,1.80
2023-04-30T07:17:51.597Z,1.73
2023-04-30T07:20:17.840Z,2.10
2023-04-30T07:22:45.253Z,1.80
2023-04-30T07:25:14.869Z,1.83
2023-04-30T07:27:41.178Z,2.20
2023-04-30T07:30:10.883Z,1.90
2023-04-30T07:32:37.661Z,2.00
2023-04-30T07:35:04.251Z,2.23
2023-04-30T07:37:30.345Z,2.00
2023-04-30T07:39:56.733Z,1.90
2023-04-30T07:42:23.545Z,1.70
2023-04-30T07:44:49.871Z,1.57
2023-04-30T07:47:16.881Z,1.67
2023-04-30T07:49:42.948Z,1.60
2023-04-30T07:52:11.713Z,1.80
2023-04-30T07:54:39.303Z,1.73
2023-04-30T07:57:05.947Z,1.60
2023-04-30T07:59:32.209Z,1.50
2023-04-30T08:01:58.471Z,1.83
2023-04-30T08:04:24.692Z,1.93
2023-04-30T08:06:51.130Z,1.77
2023-04-30T08:09:17.197Z,2.67
2023-04-30T08:11:43.345Z,2.40
2023-04-30T08:14:09.390Z,1.80
2023-04-30T08:16:35.508Z,2.10
2023-04-30T08:19:01.623Z,1.73
2023-04-30T08:21:27.770Z,1.90
2023-04-30T08:23:54.329Z,1.43
2023-04-30T08:26:20.750Z,1.60
2023-04-30T08:28:46.852Z,1.60
2023-04-30T08:31:13.051Z,1.60
2023-04-30T08:33:40.388Z,2.13
2023-04-30T08:36:06.485Z,1.30
2023-04-30T08:38:32.550Z,1.93
2023-04-30T08:41:12.758Z,1.87
2023-04-30T08:43:39.865Z,2.00
2023-04-30T08:46:06.648Z,1.93
2023-04-30T08:48:33.357Z,1.80
2023-04-30T08:51:03.609Z,2.00
2023-04-30T08:53:30.772Z,1.97
2023-04-30T08:55:57.769Z,1.40
2023-04-30T08:58:23.894Z,1.53
2023-04-30T09:00:49.990Z,1.40
2023-04-30T09:03:16.254Z,1.40
2023-04-30T09:05:42.460Z,1.70
2023-04-30T09:08:08.689Z,1.90
2023-04-30T09:10:35.405Z,1.57
2023-04-30T09:13:02.881Z,1.40
2023-04-30T09:15:29.986Z,1.33
2023-04-30T09:18:09.336Z,1.27
2023-04-30T09:20:35.773Z,1.40
2023-04-30T09:23:10.084Z,1.33
2023-04-30T09:25:42.803Z,1.10
2023-04-30T09:28:12.890Z,1.00
2023-04-30T09:30:40.114Z,1.03
2023-04-30T09:33:08.677Z,1.00
2023-04-30T09:35:38.775Z,1.27
2023-04-30T09:38:04.923Z,1.00
2023-04-30T09:40:41.903Z,1.27
2023-04-30T09:43:08.542Z,1.20
2023-04-30T09:45:50.680Z,1.30
2023-04-30T09:48:27.536Z,1.10
2023-04-30T09:50:53.647Z,1.00
2023-04-30T09:53:20.108Z,1.07
2023-04-30T09:55:48.234Z,0.80
2023-04-30T09:58:16.283Z,0.83
2023-04-30T10:00:43.329Z,1.00
2023-04-30T10:03:13.698Z,1.33
2023-04-30T10:05:47.933Z,1.30
2023-04-30T10:08:42.306Z,1.27
2023-04-30T10:11:12.183Z,1.20
2023-04-30T10:13:45.197Z,1.20
2023-04-30T10:16:17.994Z,1.17
2023-04-30T10:18:45.630Z,0.80
2023-04-30T10:21:13.844Z,1.20
2023-04-30T10:23:42.769Z,0.90
2023-04-30T10:26:12.257Z,1.47
2023-04-30T10:28:39.922Z,1.33
2023-04-30T10:31:07.071Z,1.23
2023-04-30T10:34:06.334Z,0.93
2023-04-30T10:36:43.870Z,1.17
2023-04-30T10:39:12.073Z,1.37
2023-04-30T10:41:38.500Z,1.00
2023-04-30T10:44:05.559Z,1.10
2023-04-30T10:46:34.348Z,1.30
2023-04-30T10:49:00.632Z,1.00
2023-04-30T10:51:45.196Z,1.20
2023-04-30T10:54:14.393Z,1.00
2023-04-30T10:56:40.481Z,1.23
2023-04-30T10:59:08.163Z,0.80
2023-04-30T11:01:54.265Z,0.93
2023-04-30T11:04:20.535Z,1.17
2023-04-30T11:07:07.333Z,1.00
2023-04-30T11:09:37.380Z,1.33
2023-04-30T11:12:09.287Z,1.07
2023-04-30T11:14:40.733Z,1.10
2023-04-30T11:17:06.939Z,1.10
2023-04-30T11:19:34.030Z,1.37
2023-04-30T11:22:02.824Z,1.47
2023-04-30T11:25:02.982Z,1.37
2023-04-30T11:27:30.612Z,1.00
2023-04-30T11:29:58.257Z,1.30
2023-04-30T11:32:26.899Z,1.27
2023-04-30T11:34:54.328Z,1.27
2023-04-30T11:37:33.402Z,1.07
2023-04-30T11:40:04.284Z,0.93
2023-04-30T11:42:33.939Z,0.93
2023-04-30T11:45:08.486Z,0.80
2023-04-30T11:47:48.401Z,1.47
2023-04-30T11:50:19.297Z,1.00
2023-04-30T11:52:49.921Z,0.90
2023-04-30T11:55:18.266Z,0.90
2023-04-30T11:57:46.226Z,1.00
2023-04-30T12:00:16.353Z,1.20
2023-04-30T12:02:45.118Z,0.97
2023-04-30T12:05:16.456Z,1.20
2023-04-30T12:07:49.392Z,1.13
2023-04-30T12:10:15.755Z,1.07
2023-04-30T12:12:43.153Z,0.93
2023-04-30T12:15:17.522Z,1.10
2023-04-30T12:17:45.359Z,0.80
2023-04-30T12:20:14.280Z,1.10
2023-04-30T12:22:41.852Z,1.00
2023-04-30T12:25:13.140Z,0.90
2023-04-30T12:27:40.691Z,0.97
2023-04-30T12:30:08.036Z,1.10
2023-04-30T12:32:39.001Z,1.10
2023-04-30T12:35:05.767Z,0.90
2023-04-30T12:37:32.366Z,1.07
2023-04-30T12:39:59.519Z,1.30
2023-04-30T12:42:32.360Z,0.93
2023-04-30T12:44:58.445Z,0.90
2023-04-30T12:47:24.751Z,1.10
2023-04-30T12:49:50.992Z,1.20
2023-04-30T12:52:17.150Z,1.20
2023-04-30T12:54:43.204Z,1.10
2023-04-30T12:57:11.266Z,1.10
2023-04-30T13:00:00.582Z,1.10
2023-04-30T13:02:28.261Z,0.97
2023-04-30T13:04:54.578Z,1.00
2023-04-30T13:07:20.888Z,0.87
2023-04-30T13:09:47.109Z,0.97
2023-04-30T13:12:13.813Z,0.87
2023-04-30T13:14:39.941Z,0.90
2023-04-30T13:17:09.060Z,0.80
2023-04-30T13:19:35.182Z,0.90
2023-04-30T13:22:01.269Z,0.90
2023-04-30T13:24:27.413Z,0.83
2023-04-30T13:26:53.481Z,0.70
2023-04-30T13:29:22.424Z,0.77
2023-04-30T13:31:49.244Z,0.80
2023-04-30T13:34:15.475Z,0.93
2023-04-30T13:36:41.763Z,0.80
2023-04-30T13:39:07.814Z,1.00
2023-04-30T13:41:33.857Z,0.90
2023-04-30T13:43:59.924Z,0.77
2023-04-30T13:46:26.101Z,0.70
2023-04-30T13:48:52.744Z,1.07
2023-04-30T13:51:19.324Z,0.90
2023-04-30T13:53:45.432Z,1.00
2023-04-30T13:56:12.026Z,1.10
2023-04-30T13:58:38.343Z,1.27
2023-04-30T14:01:04.587Z,0.97
2023-04-30T14:03:30.779Z,1.03
2023-04-30T14:05:57.668Z,1.27
2023-04-30T14:08:23.846Z,1.20
2023-04-30T14:10:49.956Z,0.87
2023-04-30T14:13:16.015Z,1.10
2023-04-30T14:15:42.076Z,0.70
2023-04-30T14:18:08.224Z,0.90
2023-04-30T14:20:34.979Z,0.90
2023-04-30T14:23:02.835Z,0.70
2023-04-30T14:25:29.038Z,1.40
2023-04-30T14:27:55.096Z,0.70
2023-04-30T14:30:21.210Z,0.97
2023-04-30T14:32:47.348Z,1.23
2023-04-30T14:35:13.441Z,0.93
2023-04-30T14:37:39.568Z,1.13
2023-04-30T14:40:07.236Z,1.40
2023-04-30T14:42:33.457Z,1.70
2023-04-30T14:44:59.514Z,1.17
2023-04-30T14:47:26.749Z,1.10
2023-04-30T14:49:53.119Z,1.30
2023-04-30T14:52:19.585Z,1.10
2023-04-30T14:54:45.698Z,1.10
2023-04-30T14:57:12.504Z,1.20
2023-04-30T14:59:39.405Z,1.30
2023-04-30T15:02:06.514Z,0.93
2023-04-30T15:04:32.624Z,1.17
2023-04-30T15:06:58.708Z,0.90
2023-04-30T15:09:24.879Z,1.00
2023-04-30T15:11:51.048Z,1.03
2023-04-30T15:14:17.164Z,1.00
2023-04-30T15:16:43.333Z,0.90
2023-04-30T15:19:09.543Z,1.97
2023-04-30T15:21:35.583Z,1.60
2023-04-30T15:24:01.658Z,0.80
2023-04-30T15:26:28.267Z,0.90
2023-04-30T15:28:56.113Z,0.90
2023-04-30T15:31:22.451Z,0.90
2023-04-30T15:33:48.540Z,0.97
2023-04-30T15:36:14.702Z,0.90
2023-04-30T15:38:40.926Z,0.80
2023-04-30T15:41:06.984Z,0.87
2023-04-30T15:43:33.125Z,0.90
2023-04-30T15:45:59.394Z,0.70
2023-04-30T15:48:25.574Z,1.17
2023-04-30T15:50:51.692Z,0.80
2023-04-30T15:53:17.770Z,0.90
2023-04-30T15:55:45.815Z,0.73
2023-04-30T15:58:12.461Z,0.70
2023-04-30T16:00:39.032Z,0.70
2023-04-30T16:03:05.136Z,0.90
2023-04-30T16:05:33.025Z,0.60
2023-04-30T16:07:59.159Z,0.60
2023-04-30T16:10:25.290Z,0.70
2023-04-30T16:12:51.709Z,0.60
2023-04-30T16:15:17.870Z,0.60
2023-04-30T16:17:43.982Z,0.70
2023-04-30T16:20:11.312Z,0.73
2023-04-30T16:22:37.407Z,0.90
2023-04-30T16:25:03.854Z,0.80
2023-04-30T16:27:30.139Z,0.57
2023-04-30T16:29:56.712Z,0.87
2023-04-30T16:32:23.209Z,0.60
2023-04-30T16:34:49.284Z,0.70
2023-04-30T16:37:15.401Z,0.93
2023-04-30T16:39:41.559Z,1.10
2023-04-30T16:42:08.558Z,0.90
2023-04-30T16:44:34.683Z,1.00
2023-04-30T16:47:00.880Z,0.83
2023-04-30T16:49:26.950Z,0.90
2023-04-30T16:51:53.066Z,1.13
2023-04-30T16:54:19.124Z,0.70
2023-04-30T16:56:45.346Z,0.70
2023-04-30T16:59:11.396Z,0.80
2023-04-30T17:01:37.595Z,0.73
2023-04-30T17:04:03.849Z,0.70
2023-04-30T17:06:30.064Z,1.20
2023-04-30T17:08:56.244Z,1.33
2023-04-30T17:11:24.412Z,1.00
2023-04-30T17:13:52.767Z,1.13
2023-04-30T17:16:18.859Z,0.93
2023-04-30T17:18:45.077Z,0.97
2023-04-30T17:21:11.826Z,0.90
2023-04-30T17:23:37.882Z,1.33
2023-04-30T17:26:04.880Z,0.90
2023-04-30T17:28:32.077Z,1.20
2023-04-30T17:31:02.548Z,16.50
2023-04-30T17:33:28.970Z,8.37
2023-04-30T17:35:55.418Z,1.10
2023-04-30T17:38:21.494Z,1.47
2023-04-30T17:40:47.563Z,1.40
2023-04-30T17:43:13.619Z,1.80
2023-04-30T17:45:39.659Z,1.07
2023-04-30T17:48:05.957Z,1.30
2023-04-30T17:50:32.056Z,1.53
2023-04-30T17:52:58.171Z,1.10
2023-04-30T17:55:25.022Z,1.07
2023-04-30T17:57:51.109Z,1.30
2023-04-30T18:00:17.880Z,1.20
2023-04-30T18:02:45.218Z,1.57
2023-04-30T18:05:11.385Z,1.60
2023-04-30T18:07:37.643Z,1.40
2023-04-30T18:10:03.922Z,1.30
2023-04-30T18:12:30.080Z,2.20
2023-04-30T18:14:56.270Z,1.77
2023-04-30T18:17:22.421Z,1.87
2023-04-30T18:19:49.090Z,2.03
2023-04-30T18:22:15.225Z,3.20
2023-04-30T18:24:41.704Z,2.90
2023-04-30T18:27:07.986Z,2.30
2023-04-30T18:29:34.748Z,2.23
2023-04-30T18:32:00.927Z,2.30
2023-04-30T18:34:27.540Z,2.07
2023-04-30T18:36:53.744Z,2.60
2023-04-30T18:39:21.562Z,2.53
2023-04-30T18:41:48.460Z,3.17
2023-04-30T18:44:14.612Z,2.63
2023-04-30T18:46:41.940Z,2.00
2023-04-30T18:49:08.627Z,1.77
2023-04-30T18:51:34.740Z,2.00
2023-04-30T18:54:00.834Z,2.00
2023-04-30T18:56:27.003Z,2.10
2023-04-30T18:58:53.072Z,3.50
2023-04-30T19:01:20.814Z,2.30
2023-04-30T19:03:47.403Z,2.93
2023-04-30T19:06:13.934Z,3.00
2023-04-30T19:08:40.020Z,2.60
2023-04-30T19:11:07.726Z,3.43
2023-04-30T19:13:33.792Z,4.57
2023-04-30T19:16:01.657Z,4.10
2023-04-30T19:18:27.724Z,5.17
2023-04-30T19:20:59.225Z,4.97
2023-04-30T19:23:25.979Z,4.17
2023-04-30T19:25:52.051Z,4.30
2023-04-30T19:28:18.094Z,4.27
2023-04-30T19:30:44.202Z,4.37
2023-04-30T19:33:11.472Z,4.17
2023-04-30T19:35:37.721Z,4.10
2023-04-30T19:38:03.899Z,4.73
2023-04-30T19:40:29.988Z,4.40
2023-04-30T19:42:56.051Z,4.70
2023-04-30T19:45:22.124Z,5.13
2023-04-30T19:47:48.216Z,5.13
2023-04-30T19:50:14.467Z,5.27
2023-04-30T19:52:40.827Z,4.00
2023-04-30T19:55:07.552Z,4.77
2023-04-30T19:57:35.223Z,5.80
2023-04-30T20:00:03.653Z,6.77
2023-04-30T20:02:29.803Z,5.90
2023-04-30T20:04:57.507Z,5.80
2023-04-30T20:07:23.743Z,5.70
2023-04-30T20:09:49.874Z,5.70
2023-04-30T20:12:16.096Z,5.03
2023-04-30T20:14:42.141Z,4.60
2023-04-30T20:17:08.346Z,4.63
2023-04-30T20:19:34.414Z,4.50
2023-04-30T20:22:02.181Z,5.17
2023-04-30T20:24:28.272Z,5.23
2023-04-30T20:26:54.333Z,4.83
2023-04-30T20:29:22.381Z,4.83
2023-04-30T20:31:48.511Z,3.80
2023-04-30T20:34:14.605Z,3.67
2023-04-30T20:36:40.663Z,3.67
2023-04-30T20:39:08.078Z,4.00
2023-04-30T20:41:35.081Z,3.60
2023-04-30T20:44:01.266Z,3.50
2023-04-30T20:46:27.852Z,4.90
2023-04-30T20:49:00.273Z,6.30
2023-04-30T20:51:27.335Z,4.93
2023-04-30T20:53:53.388Z,5.63
2023-04-30T20:56:20.495Z,5.67
2023-04-30T20:58:46.654Z,5.77
2023-04-30T21:01:12.795Z,5.80
2023-04-30T21:03:39.020Z,6.40
2023-04-30T21:06:06.094Z,7.23
2023-04-30T21:08:32.325Z,7.30
2023-04-30T21:10:58.435Z,12.10
2023-04-30T21:13:24.609Z,8.60
2023-04-30T21:15:52.483Z,8.47
2023-04-30T21:18:18.711Z,9.50
2023-04-30T21:20:44.794Z,11.30
2023-04-30T21:23:11.100Z,12.40
2023-04-30T21:25:37.598Z,7.47
2023-04-30T21:28:03.677Z,8.80
2023-04-30T21:30:29.821Z,8.30
2023-04-30T21:32:57.182Z,8.13
2023-04-30T21:35:24.289Z,7.30
2023-04-30T21:37:50.376Z,8.37
2023-04-30T21:40:16.659Z,6.40
2023-04-30T21:42:42.726Z,7.07
2023-04-30T21:45:09.297Z,7.30
2023-04-30T21:47:35.380Z,7.87
2023-04-30T21:50:01.576Z,6.23
2023-04-30T21:52:27.682Z,7.20
2023-04-30T21:54:53.762Z,7.17
2023-04-30T21:57:20.748Z,3.80
2023-04-30T21:59:46.843Z,7.80
2023-04-30T22:02:23.210Z,8.07
2023-04-30T22:04:50.476Z,5.50
2023-04-30T22:07:16.730Z,5.33
2023-04-30T22:09:44.048Z,4.87
2023-04-30T22:12:10.362Z,8.57
2023-04-30T22:14:36.468Z,11.80
2023-04-30T22:17:02.623Z,10.97
2023-04-30T22:19:28.753Z,8.90
2023-04-30T22:21:54.800Z,6.83
2023-04-30T22:24:20.865Z,7.90
2023-04-30T22:26:46.966Z,7.00
2023-04-30T22:29:13.253Z,5.90
2023-04-30T22:31:39.317Z,6.80
2023-04-30T22:34:06.869Z,6.67
2023-04-30T22:36:32.923Z,7.83
2023-04-30T22:38:59.074Z,7.80
2023-04-30T22:41:25.258Z,7.20
2023-04-30T22:43:52.277Z,7.33
2023-04-30T22:46:18.432Z,8.03
2023-04-30T22:48:44.549Z,8.03
2023-04-30T22:51:10.672Z,7.90
2023-04-30T22:53:36.831Z,9.20
2023-04-30T22:56:03.092Z,10.93
2023-04-30T22:58:29.175Z,7.70
2023-04-30T23:00:55.266Z,4.13
2023-04-30T23:03:21.368Z,4.20
2023-04-30T23:05:50.755Z,4.70
2023-04-30T23:08:16.841Z,4.20
2023-04-30T23:10:44.177Z,3.67
2023-04-30T23:13:11.066Z,5.37
2023-04-30T23:15:37.159Z,4.87
2023-04-30T23:18:04.516Z,5.17
2023-04-30T23:20:30.644Z,5.87
2023-04-30T23:22:56.729Z,5.37
2023-04-30T23:25:22.869Z,4.53
2023-04-30T23:27:48.978Z,4.60
2023-04-30T23:30:15.061Z,3.80
2023-04-30T23:32:41.145Z,4.33
2023-04-30T23:35:08.306Z,4.47
2023-04-30T23:37:34.898Z,4.17
2023-04-30T23:40:01.297Z,5.93
2023-04-30T23:42:27.424Z,5.70
2023-04-30T23:44:54.296Z,4.57
2023-04-30T23:47:20.376Z,3.93
2023-04-30T23:49:46.435Z,3.47
2023-04-30T23:52:13.681Z,3.20
2023-04-30T23:54:39.736Z,4.63
2023-04-30T23:57:05.815Z,4.50
2023-04-30T23:59:31.905Z,4.30
